Time;durP1;ratioP1;P1;durP2;ratioP2;P2;SDS_P1;SDS_P2;PMS_P1;PMS_P2;Temp;Humidity;BMP_temperature;BMP_pressure;BME280_temperature;BME280_humidity;BME280_pressure;Samples;Min_cycle;Max_cycle;Signal;HPM_P1;HPM_P2
2023/04/29 00:00:21;;;;;;;8.63;6.90;;;11.20;99.90;;;;;;5063486;28;20456;-81
2023/04/29 00:02:46;;;;;;;10.00;7.17;;;11.20;99.90;;;;;;5052731;28;20244;-81
2023/04/29 00:05:12;;;;;;;9.80;7.10;;;11.10;99.90;;;;;;5047464;28;20206;-83
2023/04/29 00:07:37;;;;;;;9.87;7.30;;;11.10;99.90;;;;;;5048051;28;20659;-82
2023/04/29 00:10:04;;;;;;;10.07;7.23;;;11.10;99.90;;;;;;5039832;28;20268;-83
2023/04/29 00:12:30;;;;;;;8.40;7.50;;;11.10;99.90;;;;;;5071159;28;20511;-82
2023/04/29 00:14:56;;;;;;;9.27;7.67;;;11.10;99.90;;;;;;5044253;28;20928;-81
2023/04/29 00:17:22;;;;;;;11.37;7.30;;;11.00;99.90;;;;;;5052137;28;20412;-83
2023/04/29 00:19:48;;;;;;;10.20;7.60;;;10.90;99.90;;;;;;5050829;28;20520;-82
2023/04/29 00:22:13;;;;;;;13.93;8.20;;;10.90;99.90;;;;;;5071432;28;20170;-82
2023/04/29 00:24:39;;;;;;;8.47;7.67;;;10.90;99.90;;;;;;5071159;28;20905;-82
2023/04/29 00:27:05;;;;;;;9.40;7.70;;;11.00;99.90;;;;;;5053555;28;20165;-82
2023/04/29 00:29:31;;;;;;;10.20;7.47;;;11.00;99.90;;;;;;5048303;28;20673;-82
2023/04/29 00:31:56;;;;;;;11.13;7.13;;;11.00;99.90;;;;;;5053573;28;20424;-84
2023/04/29 00:34:22;;;;;;;10.10;7.03;;;11.00;99.90;;;;;;5071705;28;20732;-80
2023/04/29 00:36:48;;;;;;;8.20;6.97;;;11.00;99.90;;;;;;5055527;28;20658;-83
2023/04/29 00:39:13;;;;;;;11.67;9.37;;;10.90;99.90;;;;;;5075226;28;20412;-82
2023/04/29 00:41:39;;;;;;;11.27;8.00;;;10.80;99.90;;;;;;5051756;28;20513;-82
2023/04/29 00:44:05;;;;;;;12.47;8.80;;;10.80;99.90;;;;;;5051265;28;20679;-81
2023/04/29 00:46:30;;;;;;;13.23;7.23;;;10.80;99.90;;;;;;5074948;28;20168;-83
2023/04/29 00:48:56;;;;;;;11.17;7.57;;;10.70;99.90;;;;;;5048309;28;20190;-83
2023/04/29 00:51:22;;;;;;;10.83;7.27;;;10.70;99.90;;;;;;5052591;28;20730;-81
2023/04/29 00:53:48;;;;;;;9.90;7.90;;;10.70;99.90;;;;;;5074831;28;20177;-81
2023/04/29 00:56:14;;;;;;;9.63;7.73;;;10.70;99.90;;;;;;5049110;28;20173;-81
2023/04/29 00:58:44;;;;;;;11.63;7.30;;;10.70;99.90;;;;;;5074571;28;20442;-83
2023/04/29 01:01:11;;;;;;;8.80;7.70;;;10.70;99.90;;;;;;5048998;28;20501;-83
2023/04/29 01:03:37;;;;;;;15.30;8.50;;;10.70;99.90;;;;;;5001768;28;20830;-82
2023/04/29 01:06:27;;;;;;;13.73;8.80;;;10.70;99.90;;;;;;5050797;28;20425;-84
2023/04/29 01:09:25;;;;;;;12.60;7.77;;;10.70;99.90;;;;;;5054087;28;20503;-83
2023/04/29 01:12:40;;;;;;;10.80;7.80;;;10.80;99.90;;;;;;5052804;28;20415;-83
2023/04/29 01:15:17;;;;;;;11.63;7.70;;;10.80;99.90;;;;;;4983981;28;20925;-83
2023/04/29 01:18:02;;;;;;;9.63;7.33;;;11.70;99.90;;;;;;5053809;28;20952;-84
2023/04/29 01:20:30;;;;;;;9.00;7.60;;;10.80;99.90;;;;;;5056239;28;20416;-81
2023/04/29 01:22:55;;;;;;;9.90;7.57;;;10.80;99.90;;;;;;5057131;28;20428;-82
2023/04/29 01:25:21;;;;;;;11.27;7.50;;;10.90;99.90;;;;;;5057029;28;20476;-81
2023/04/29 01:27:46;;;;;;;10.97;8.07;;;10.90;99.90;;;;;;5074992;28;20211;-82
2023/04/29 01:30:31;;;;;;;10.57;7.53;;;10.90;99.90;;;;;;5074994;28;20166;-82
2023/04/29 01:33:27;;;;;;;13.10;8.50;;;10.90;99.90;;;;;;5057048;28;20547;-83
2023/04/29 01:36:06;;;;;;;12.30;8.17;;;10.90;99.90;;;;;;5074515;28;20901;-86
2023/04/29 01:38:59;;;;;;;13.13;8.93;;;10.90;99.90;;;;;;5056787;28;20441;-84
2023/04/29 01:41:41;;;;;;;10.20;7.70;;;10.90;99.90;;;;;;5074716;28;20444;-82
2023/04/29 01:44:14;;;;;;;9.90;8.33;;;10.90;99.90;;;;;;5074599;28;21168;-84
2023/04/29 01:46:40;;;;;;;11.10;8.80;;;10.90;99.90;;;;;;5040184;28;20524;-85
2023/04/29 01:49:10;;;;;;;9.83;7.80;;;10.90;99.90;;;;;;5056483;28;20411;-85
2023/04/29 01:51:36;;;;;;;9.43;7.23;;;10.90;99.90;;;;;;5056240;28;20944;-83
2023/04/29 01:54:04;;;;;;;12.07;9.37;;;10.80;99.90;;;;;;5040070;28;20426;-85
2023/04/29 01:56:29;;;;;;;13.83;10.50;;;10.90;99.90;;;;;;5074462;28;20814;-84
2023/04/29 01:58:56;;;;;;;11.70;8.80;;;10.90;99.90;;;;;;5049899;28;20481;-84
2023/04/29 02:01:22;;;;;;;12.47;8.77;;;11.00;99.90;;;;;;5054062;28;20656;-83
2023/04/29 02:03:47;;;;;;;11.00;8.27;;;11.10;99.90;;;;;;5054185;28;20444;-83
2023/04/29 02:06:13;;;;;;;12.00;9.60;;;11.00;99.90;;;;;;5053933;28;20267;-82
2023/04/29 02:08:38;;;;;;;13.17;9.40;;;11.00;99.90;;;;;;5036278;28;20636;-85
2023/04/29 02:11:04;;;;;;;12.07;9.00;;;11.00;99.90;;;;;;5054101;28;20249;-83
2023/04/29 02:13:29;;;;;;;17.83;9.70;;;11.00;99.90;;;;;;5036246;28;20271;-83
2023/04/29 02:15:55;;;;;;;12.70;9.70;;;11.00;99.90;;;;;;5036115;28;20230;-83
2023/04/29 02:18:20;;;;;;;13.60;10.60;;;11.00;99.90;;;;;;5053794;28;20186;-83
2023/04/29 02:20:45;;;;;;;11.10;9.63;;;10.90;99.90;;;;;;5053344;28;20633;-81
2023/04/29 02:23:11;;;;;;;11.10;9.80;;;10.90;99.90;;;;;;5053941;28;20174;-83
2023/04/29 02:25:37;;;;;;;16.50;10.87;;;10.90;99.90;;;;;;5035867;28;20694;-82
2023/04/29 02:28:02;;;;;;;11.67;10.20;;;10.90;99.90;;;;;;5035764;28;20174;-81
2023/04/29 02:30:29;;;;;;;12.67;9.50;;;10.90;99.90;;;;;;5013021;28;20665;-82
2023/04/29 02:32:54;;;;;;;12.87;10.80;;;10.90;99.90;;;;;;5053724;28;20174;-84
2023/04/29 02:35:20;;;;;;;16.27;10.27;;;10.90;99.90;;;;;;5053384;28;20443;-85
2023/04/29 02:37:45;;;;;;;15.50;12.37;;;10.60;99.90;;;;;;5053760;28;20173;-85
2023/04/29 02:40:11;;;;;;;13.77;11.23;;;10.90;99.90;;;;;;5053622;28;20662;-85
2023/04/29 02:42:37;;;;;;;10.67;9.37;;;11.00;99.90;;;;;;5053511;28;20195;-85
2023/04/29 02:45:03;;;;;;;13.03;10.30;;;10.90;99.90;;;;;;5053562;28;20486;-84
2023/04/29 02:47:28;;;;;;;13.90;9.80;;;11.00;99.90;;;;;;5053384;28;20200;-85
2023/04/29 02:49:54;;;;;;;14.20;11.23;;;11.00;99.90;;;;;;5031636;28;20197;-84
2023/04/29 02:52:19;;;;;;;19.10;12.47;;;11.00;99.90;;;;;;5033456;28;20166;-82
2023/04/29 02:54:45;;;;;;;16.60;10.77;;;11.00;99.90;;;;;;5033466;28;20254;-82
2023/04/29 02:57:11;;;;;;;13.63;10.17;;;11.00;99.90;;;;;;5033403;28;20167;-82
2023/04/29 02:59:39;;;;;;;16.70;10.80;;;10.90;99.90;;;;;;5056642;28;20224;-82
2023/04/29 03:02:04;;;;;;;13.67;10.20;;;10.90;99.90;;;;;;5073276;28;20410;-82
2023/04/29 03:04:30;;;;;;;20.03;12.27;;;10.90;99.90;;;;;;5073056;28;20978;-82
2023/04/29 03:06:56;;;;;;;14.60;11.27;;;11.00;99.90;;;;;;5072814;28;20177;-82
2023/04/29 03:09:22;;;;;;;13.87;11.70;;;10.80;99.90;;;;;;5073141;28;20169;-83
2023/04/29 03:11:48;;;;;;;15.73;9.83;;;10.90;99.90;;;;;;5073132;28;20220;-82
2023/04/29 03:14:13;;;;;;;14.07;9.70;;;10.90;99.90;;;;;;5073090;28;20410;-82
2023/04/29 03:16:39;;;;;;;14.30;10.93;;;10.90;99.90;;;;;;5072976;28;20248;-82
2023/04/29 03:19:04;;;;;;;14.23;10.97;;;10.90;99.90;;;;;;5072706;28;20253;-82
2023/04/29 03:21:30;;;;;;;16.27;9.90;;;10.90;99.90;;;;;;5072678;28;20169;-84
2023/04/29 03:23:55;;;;;;;11.43;9.40;;;10.90;99.90;;;;;;5055143;28;20685;-83
2023/04/29 03:26:23;;;;;;;11.80;9.93;;;10.90;99.90;;;;;;5072980;28;20181;-84
2023/04/29 03:28:48;;;;;;;16.23;10.07;;;10.80;99.90;;;;;;5072946;28;20520;-83
2023/04/29 03:31:15;;;;;;;15.00;9.87;;;11.10;99.90;;;;;;5071621;28;20415;-83
2023/04/29 03:33:40;;;;;;;11.90;9.60;;;10.80;99.90;;;;;;5072863;28;20184;-83
2023/04/29 03:36:07;;;;;;;11.80;10.00;;;10.90;99.90;;;;;;5054426;28;20452;-83
2023/04/29 03:38:33;;;;;;;15.20;10.50;;;10.90;99.90;;;;;;5072520;28;20714;-84
2023/04/29 03:40:58;;;;;;;17.63;10.53;;;10.70;99.90;;;;;;5072691;28;20438;-84
2023/04/29 03:43:24;;;;;;;14.57;10.40;;;10.70;99.90;;;;;;5072774;28;20172;-83
2023/04/29 03:45:50;;;;;;;13.70;9.80;;;10.70;99.90;;;;;;5072680;28;20240;-84
2023/04/29 03:48:15;;;;;;;15.30;10.43;;;10.60;99.90;;;;;;5072698;28;20165;-85
2023/04/29 03:50:41;;;;;;;15.80;10.33;;;10.60;99.90;;;;;;5054466;28;20630;-83
2023/04/29 03:53:07;;;;;;;13.50;9.53;;;10.70;99.90;;;;;;5072751;28;20203;-83
2023/04/29 03:55:32;;;;;;;15.07;10.00;;;10.60;99.90;;;;;;5054693;28;20179;-84
2023/04/29 03:57:58;;;;;;;15.77;11.60;;;10.60;99.90;;;;;;5072653;28;20215;-84
2023/04/29 04:00:25;;;;;;;16.23;11.23;;;10.60;99.90;;;;;;5072408;28;20230;-84
2023/04/29 04:02:51;;;;;;;18.77;11.30;;;10.50;99.90;;;;;;5072566;28;20166;-84
2023/04/29 04:05:19;;;;;;;18.33;11.90;;;10.90;99.90;;;;;;5072120;28;20517;-86
2023/04/29 04:07:45;;;;;;;18.90;12.93;;;10.70;99.90;;;;;;5072513;28;20414;-85
2023/04/29 04:10:10;;;;;;;17.73;12.53;;;10.50;99.90;;;;;;5072554;28;20467;-84
2023/04/29 04:12:36;;;;;;;14.70;11.37;;;10.30;99.90;;;;;;5076268;28;20165;-85
2023/04/29 04:15:03;;;;;;;13.67;10.90;;;10.50;99.90;;;;;;5076434;28;20192;-84
2023/04/29 04:17:28;;;;;;;17.27;12.17;;;10.60;99.90;;;;;;5058349;28;20634;-85
2023/04/29 04:19:54;;;;;;;14.17;10.33;;;10.40;99.90;;;;;;5075809;28;20417;-85
2023/04/29 04:22:20;;;;;;;15.40;11.03;;;10.50;99.90;;;;;;5057937;28;20255;-85
2023/04/29 04:24:45;;;;;;;18.30;12.30;;;10.80;99.90;;;;;;5058226;28;20216;-84
2023/04/29 04:27:11;;;;;;;17.53;13.13;;;10.40;99.90;;;;;;5075986;28;20219;-84
2023/04/29 04:29:36;;;;;;;19.07;11.60;;;10.30;99.90;;;;;;5058168;28;20176;-84
2023/04/29 04:32:02;;;;;;;19.70;12.50;;;10.10;99.90;;;;;;5057468;28;20547;-84
2023/04/29 04:34:27;;;;;;;19.33;11.83;;;10.30;99.90;;;;;;5057666;28;20252;-85
2023/04/29 04:36:53;;;;;;;13.93;11.27;;;10.20;99.90;;;;;;5075412;28;20575;-84
2023/04/29 04:39:18;;;;;;;16.43;10.73;;;10.50;99.90;;;;;;5075871;28;20166;-85
2023/04/29 04:41:44;;;;;;;13.13;9.90;;;10.60;99.90;;;;;;5075593;28;20700;-85
2023/04/29 04:44:09;;;;;;;13.87;11.03;;;10.60;99.90;;;;;;5057535;28;20212;-84
2023/04/29 04:46:35;;;;;;;22.07;12.47;;;10.60;99.90;;;;;;5057704;28;20208;-85
2023/04/29 04:49:01;;;;;;;14.17;9.80;;;10.40;99.90;;;;;;5057815;28;20180;-86
2023/04/29 04:51:27;;;;;;;13.53;10.30;;;10.60;99.90;;;;;;5057347;28;20841;-84
2023/04/29 04:53:53;;;;;;;16.30;10.40;;;10.60;99.90;;;;;;5057709;28;20223;-85
2023/04/29 04:56:18;;;;;;;14.93;9.30;;;10.50;99.90;;;;;;5057512;28;20428;-86
2023/04/29 04:58:44;;;;;;;17.40;11.57;;;10.50;99.90;;;;;;5057161;28;20224;-85
2023/04/29 05:01:12;;;;;;;15.53;10.43;;;10.40;99.90;;;;;;5057632;28;20187;-85
2023/04/29 05:03:38;;;;;;;13.03;9.70;;;10.70;99.90;;;;;;5075344;28;20184;-84
2023/04/29 05:06:03;;;;;;;15.07;10.93;;;10.50;99.90;;;;;;5074686;28;21043;-85
2023/04/29 05:08:29;;;;;;;16.97;11.90;;;10.50;99.90;;;;;;5057218;28;20179;-86
2023/04/29 05:10:54;;;;;;;14.27;11.07;;;10.50;99.90;;;;;;5075314;28;20262;-85
2023/04/29 05:13:20;;;;;;;13.80;10.40;;;10.50;99.90;;;;;;5057237;28;20184;-84
2023/04/29 05:15:45;;;;;;;15.80;10.50;;;10.60;99.90;;;;;;5057158;28;20218;-86
2023/04/29 05:18:11;;;;;;;15.23;11.20;;;10.70;99.90;;;;;;5074737;28;20178;-85
2023/04/29 05:20:37;;;;;;;14.63;11.00;;;10.80;99.90;;;;;;5056611;28;20195;-85
2023/04/29 05:23:03;;;;;;;15.97;11.60;;;11.30;99.90;;;;;;5056996;28;20317;-86
2023/04/29 05:25:28;;;;;;;17.43;11.33;;;10.80;99.90;;;;;;5056628;28;20253;-85
2023/04/29 05:27:54;;;;;;;13.37;10.47;;;11.10;99.90;;;;;;5057033;28;20261;-85
2023/04/29 05:30:20;;;;;;;13.40;9.40;;;11.20;99.90;;;;;;5056676;28;20181;-85
2023/04/29 05:32:46;;;;;;;16.20;11.43;;;11.50;99.90;;;;;;5074630;28;20169;-86
2023/04/29 05:35:11;;;;;;;13.97;9.63;;;11.80;99.90;;;;;;5056421;28;20434;-85
2023/04/29 05:37:37;;;;;;;13.57;9.07;;;11.90;99.90;;;;;;5057258;28;20176;-87
2023/04/29 05:40:03;;;;;;;11.80;8.93;;;11.60;99.90;;;;;;5074933;28;20220;-86
2023/04/29 05:42:28;;;;;;;11.47;8.90;;;12.10;99.90;;;;;;5074966;28;20773;-86
2023/04/29 05:44:54;;;;;;;11.10;8.10;;;12.10;99.90;;;;;;5057778;28;20566;-86
2023/04/29 05:47:20;;;;;;;10.13;8.30;;;12.80;99.90;;;;;;5057519;28;20197;-86
2023/04/29 05:49:46;;;;;;;13.93;8.77;;;12.50;99.90;;;;;;5056120;28;20183;-85
2023/04/29 05:52:11;;;;;;;13.13;10.13;;;12.60;99.90;;;;;;5074403;28;20432;-84
2023/04/29 05:54:37;;;;;;;10.83;8.43;;;12.70;99.90;;;;;;5056438;28;20691;-85
2023/04/29 05:57:02;;;;;;;11.47;8.83;;;12.80;99.90;;;;;;5056495;28;20227;-86
2023/04/29 05:59:32;;;;;;;9.30;8.13;;;12.90;99.90;;;;;;5074292;28;20223;-87
2023/04/29 06:01:58;;;;;;;10.93;6.90;;;13.30;99.90;;;;;;5074282;28;20183;-86
2023/04/29 06:04:33;;;;;;;8.70;7.30;;;13.60;99.90;;;;;;5012437;28;20476;-86
2023/04/29 06:06:59;;;;;;;8.50;6.73;;;13.80;99.90;;;;;;5036079;28;20451;-86
2023/04/29 06:09:24;;;;;;;9.40;7.13;;;13.80;99.90;;;;;;5054174;28;20434;-85
2023/04/29 06:11:50;;;;;;;8.10;6.77;;;14.00;99.90;;;;;;5054309;28;20194;-87
2023/04/29 06:14:16;;;;;;;7.80;6.70;;;14.40;93.50;;;;;;5036207;28;20598;-88
2023/04/29 06:16:42;;;;;;;10.47;6.93;;;14.40;93.10;;;;;;5035782;28;20414;-88
2023/04/29 06:19:07;;;;;;;7.83;5.90;;;14.50;52.50;;;;;;5054008;28;20655;-86
2023/04/29 06:21:33;;;;;;;6.40;5.47;;;15.00;1.00;;;;;;5035611;28;20184;-85
2023/04/29 06:23:58;;;;;;;7.60;5.50;;;15.80;1.00;;;;;;5035933;28;20413;-86
2023/04/29 06:26:24;;;;;;;7.30;4.80;;;16.00;1.00;;;;;;5054091;28;20261;-88
2023/04/29 06:28:49;;;;;;;6.87;5.00;;;16.50;71.10;;;;;;5036876;28;20651;-89
2023/04/29 06:31:15;;;;;;;7.70;5.30;;;16.70;1.00;;;;;;5036884;28;20290;-89
2023/04/29 06:33:41;;;;;;;7.93;4.50;;;16.80;1.00;;;;;;5035647;28;20204;-89
2023/04/29 06:36:10;;;;;;;4.93;4.30;;;17.30;1.00;;;;;;5039250;28;20239;-89
2023/04/29 06:38:35;;;;;;;5.93;4.83;;;18.10;1.00;;;;;;5056894;28;20422;-89
2023/04/29 06:41:01;;;;;;;8.37;4.33;;;18.40;99.90;;;;;;5057674;28;20447;-88
2023/04/29 06:43:27;;;;;;;5.70;4.70;;;18.70;99.90;;;;;;5056466;28;20636;-87
2023/04/29 06:45:52;;;;;;;5.90;4.03;;;18.60;2.70;;;;;;5073330;28;20292;-88
2023/04/29 06:48:21;;;;;;;7.07;3.87;;;18.90;1.00;;;;;;5073441;28;20168;-86
2023/04/29 06:50:53;;;;;;;6.77;4.40;;;19.20;1.00;;;;;;5072999;28;20260;-88
2023/04/29 06:53:19;;;;;;;6.20;5.20;;;19.70;1.00;;;;;;5055588;28;20429;-87
2023/04/29 06:55:47;;;;;;;4.77;3.47;;;19.80;1.00;;;;;;5055086;28;20513;-86
2023/04/29 06:58:14;;;;;;;4.73;4.17;;;19.30;1.00;;;;;;5073060;28;20242;-85
2023/04/29 07:00:43;;;;;;;6.23;3.60;;;19.60;1.00;;;;;;5073271;28;20477;-86
2023/04/29 07:03:09;;;;;;;6.07;3.70;;;20.00;1.00;;;;;;5073305;28;20514;-86
2023/04/29 07:05:44;;;;;;;4.57;3.30;;;19.90;1.00;;;;;;5010121;28;21002;-84
2023/04/29 07:08:11;;;;;;;4.03;3.63;;;20.00;1.00;;;;;;5053267;28;20406;-86
2023/04/29 07:10:37;;;;;;;4.90;4.00;;;20.10;1.00;;;;;;5053062;28;20478;-89
2023/04/29 07:13:03;;;;;;;5.13;3.70;;;20.50;1.00;;;;;;5053047;28;20407;-86
2023/04/29 07:15:32;;;;;;;5.13;4.63;;;20.90;1.00;;;;;;5053031;28;20410;-87
2023/04/29 07:17:59;;;;;;;5.23;4.30;;;21.00;1.00;;;;;;5035093;28;20180;-88
2023/04/29 07:20:26;;;;;;;5.90;3.57;;;20.90;1.00;;;;;;5052652;28;20465;-85
2023/04/29 07:22:51;;;;;;;5.23;4.43;;;21.10;1.00;;;;;;5034991;28;20913;-89
2023/04/29 07:25:17;;;;;;;8.17;4.07;;;21.40;1.00;;;;;;5053117;28;20533;-86
2023/04/29 07:27:42;;;;;;;4.77;3.77;;;21.80;1.00;;;;;;5052832;28;20173;-83
2023/04/29 07:30:08;;;;;;;4.23;3.83;;;21.60;1.00;;;;;;5034902;28;20177;-86
2023/04/29 07:32:34;;;;;;;5.70;4.63;;;21.40;1.00;;;;;;5034874;28;20196;-86
2023/04/29 07:34:59;;;;;;;6.27;4.10;;;21.30;1.00;;;;;;5052399;28;20248;-86
2023/04/29 07:37:25;;;;;;;5.90;3.57;;;21.60;1.00;;;;;;5064636;28;20634;-87
2023/04/29 07:39:51;;;;;;;6.63;3.53;;;22.10;1.00;;;;;;5072879;28;20189;-85
2023/04/29 07:42:17;;;;;;;4.00;3.50;;;22.50;1.00;;;;;;5054813;28;20443;-86
2023/04/29 07:44:44;;;;;;;5.27;3.83;;;22.80;1.00;;;;;;5072707;28;20968;-85
2023/04/29 07:47:10;;;;;;;6.63;3.00;;;23.30;1.00;;;;;;5058247;28;20605;-85
2023/04/29 07:49:35;;;;;;;4.03;3.20;;;23.70;1.00;;;;;;5076436;28;20510;-85
2023/04/29 07:52:01;;;;;;;5.10;3.23;;;24.00;1.00;;;;;;5076855;28;20165;-85
2023/04/29 07:54:26;;;;;;;5.70;2.60;;;23.90;1.00;;;;;;5076563;28;20627;-85
2023/04/29 07:56:52;;;;;;;5.03;3.63;;;24.00;1.00;;;;;;5058871;28;20177;-85
2023/04/29 07:59:17;;;;;;;6.87;3.67;;;23.60;1.00;;;;;;5058527;28;20311;-86
2023/04/29 08:01:43;;;;;;;6.13;3.30;;;23.60;1.00;;;;;;5041984;28;20181;-85
2023/04/29 08:04:08;;;;;;;4.77;3.50;;;23.50;1.00;;;;;;5041537;28;20268;-85
2023/04/29 08:06:34;;;;;;;4.90;3.37;;;23.90;1.00;;;;;;5036451;28;20231;-84
2023/04/29 08:09:00;;;;;;;5.03;3.70;;;24.00;1.00;;;;;;5058177;28;20176;-85
2023/04/29 08:11:28;;;;;;;3.00;2.33;;;24.60;1.00;;;;;;5050515;28;20185;-88
2023/04/29 08:13:56;;;;;;;4.83;3.10;;;24.90;1.00;;;;;;5039119;28;20419;-87
2023/04/29 08:16:25;;;;;;;6.47;3.10;;;25.60;1.00;;;;;;5055989;28;20461;-87
2023/04/29 08:18:51;;;;;;;4.27;3.60;;;25.30;1.00;;;;;;5049640;28;20416;-86
2023/04/29 08:21:17;;;;;;;4.63;3.13;;;25.20;1.00;;;;;;5054461;28;20415;-89
2023/04/29 08:23:43;;;;;;;5.67;3.10;;;25.70;1.00;;;;;;5056021;28;20174;-87
2023/04/29 08:26:09;;;;;;;4.53;2.90;;;25.90;1.00;;;;;;5051262;28;20693;-85
2023/04/29 08:28:35;;;;;;;4.13;2.87;;;26.00;1.00;;;;;;5076745;28;20194;-88
2023/04/29 08:31:00;;;;;;;6.70;3.90;;;26.30;1.00;;;;;;5065414;28;20458;-88
2023/04/29 08:33:26;;;;;;;6.63;3.47;;;26.10;1.00;;;;;;5074030;28;20203;-90
2023/04/29 08:36:02;;;;;;;3.07;2.57;;;25.50;1.00;;;;;;5057744;28;20650;-86
2023/04/29 08:38:28;;;;;;;4.13;3.03;;;25.70;1.00;;;;;;5040300;28;20236;-90
2023/04/29 08:40:55;;;;;;;5.07;3.33;;;25.80;1.00;;;;;;5038967;28;20925;-89
2023/04/29 08:43:21;;;;;;;7.87;4.13;;;25.90;1.00;;;;;;5052029;28;20432;-89
2023/04/29 08:45:48;;;;;;;4.27;2.70;;;26.20;1.00;;;;;;5039424;28;20467;-87
2023/04/29 08:48:15;;;;;;;4.67;2.73;;;26.00;1.00;;;;;;5038977;28;20174;-89
2023/04/29 08:50:41;;;;;;;5.37;3.47;;;26.70;1.00;;;;;;5057221;28;20428;-87
2023/04/29 08:53:09;;;;;;;5.60;2.67;;;26.90;1.00;;;;;;5047115;28;20430;-92
2023/04/29 08:55:40;;;;;;;6.60;2.70;;;27.50;1.00;;;;;;5058879;28;20510;-86
2023/04/29 08:58:06;;;;;;;6.33;3.33;;;28.00;1.00;;;;;;5073075;28;20435;-90
2023/04/29 09:00:33;;;;;;;5.77;4.50;;;28.20;1.00;;;;;;5057037;28;20463;-93
2023/04/29 09:03:01;;;;;;;4.83;3.27;;;28.10;1.00;;;;;;5068846;28;20775;-93
2023/04/29 09:05:27;;;;;;;3.43;2.80;;;28.20;1.00;;;;;;5054272;28;20435;-89
2023/04/29 09:07:55;;;;;;;4.13;3.37;;;28.60;1.00;;;;;;5037741;28;20418;-87
2023/04/29 09:10:21;;;;;;;3.83;2.70;;;28.90;1.00;;;;;;5043544;28;20436;-93
2023/04/29 09:12:46;;;;;;;4.70;3.10;;;28.90;1.00;;;;;;5088895;22;20590;-90
2023/04/29 09:15:13;;;;;;;4.27;3.60;;;28.10;1.00;;;;;;5026047;28;20217;-91
2023/04/29 09:17:39;;;;;;;4.33;3.53;;;28.30;1.00;;;;;;5030256;28;20189;-85
2023/04/29 09:20:20;;;;;;;5.63;3.60;;;28.80;1.00;;;;;;5055562;28;20495;-84
2023/04/29 09:23:00;;;;;;;4.10;3.17;;;28.90;1.00;;;;;;5048665;28;20498;-87
2023/04/29 09:25:26;;;;;;;3.47;3.17;;;28.80;1.00;;;;;;5056622;28;20463;-90
2023/04/29 09:27:52;;;;;;;3.10;2.73;;;28.50;1.00;;;;;;5023191;28;20419;-88
2023/04/29 09:30:18;;;;;;;4.37;2.70;;;28.70;1.00;;;;;;5037539;28;20929;-86
2023/04/29 09:32:46;;;;;;;2.87;2.67;;;28.80;1.00;;;;;;5053636;28;20420;-89
2023/04/29 09:35:22;;;;;;;4.07;3.13;;;29.00;1.00;;;;;;5033471;28;20499;-93
2023/04/29 09:37:48;;;;;;;5.30;4.60;;;29.30;1.00;;;;;;5036553;28;21075;-86
2023/04/29 09:40:32;;;;;;;5.37;3.83;;;29.40;1.00;;;;;;5036873;28;20447;-87
2023/04/29 09:42:58;;;;;;;5.07;4.57;;;29.50;1.00;;;;;;5038988;28;20166;-89
2023/04/29 09:45:37;;;;;;;7.00;4.00;;;29.60;1.00;;;;;;5038425;28;20416;-84
2023/04/29 09:48:07;;;;;;;5.60;4.67;;;29.50;1.00;;;;;;5038560;28;20416;-86
2023/04/29 09:50:35;;;;;;;5.30;4.60;;;29.40;1.00;;;;;;5038612;28;20438;-91
2023/04/29 09:53:01;;;;;;;4.40;4.03;;;29.30;1.00;;;;;;5038354;28;20812;-89
2023/04/29 09:55:28;;;;;;;4.73;4.07;;;29.40;1.00;;;;;;5036660;28;20480;-84
2023/04/29 09:57:54;;;;;;;4.87;3.97;;;29.10;1.00;;;;;;5039282;28;20213;-92
2023/04/29 10:00:20;;;;;;;6.43;4.90;;;29.30;1.00;;;;;;5050458;28;20448;-89
2023/04/29 10:02:47;;;;;;;5.00;4.43;;;29.50;1.00;;;;;;5039501;28;20424;-84
2023/04/29 10:05:14;;;;;;;5.13;4.53;;;29.80;1.00;;;;;;5034127;28;20477;-85
2023/04/29 10:07:41;;;;;;;5.47;4.63;;;29.30;1.00;;;;;;5049518;28;20758;-85
2023/04/29 10:10:10;;;;;;;6.97;5.90;;;28.70;1.00;;;;;;5049215;28;20466;-85
2023/04/29 10:12:39;;;;;;;6.00;5.43;;;29.00;1.00;;;;;;5034633;28;20540;-90
2023/04/29 10:15:35;;;;;;;4.87;3.93;;;29.10;1.00;;;;;;5034204;28;20480;-86
2023/04/29 10:18:17;;;;;;;6.37;4.57;;;29.10;1.00;;;;;;5016458;28;20829;-85
2023/04/29 10:20:49;;;;;;;4.40;4.00;;;29.10;1.00;;;;;;5041388;28;20471;-86
2023/04/29 10:23:16;;;;;;;5.83;3.47;;;29.10;1.00;;;;;;5032210;28;20412;-86
2023/04/29 10:25:43;;;;;;;4.83;4.30;;;29.40;1.00;;;;;;5053974;28;20424;-92
2023/04/29 10:28:13;;;;;;;4.83;3.40;;;29.30;1.00;;;;;;5081729;22;20478;-86
2023/04/29 10:30:42;;;;;;;7.27;4.50;;;29.70;1.00;;;;;;5083451;28;20414;-85
2023/04/29 10:33:10;;;;;;;4.73;3.77;;;29.80;1.00;;;;;;5090091;28;20423;-87
2023/04/29 10:35:36;;;;;;;4.40;3.90;;;30.10;1.00;;;;;;5078346;28;20575;-88
2023/04/29 10:38:07;;;;;;;4.67;4.17;;;30.00;1.00;;;;;;5075101;28;20411;-85
2023/04/29 10:40:47;;;;;;;4.17;3.33;;;29.90;1.00;;;;;;5072250;28;20435;-89
2023/04/29 10:43:13;;;;;;;2.90;2.63;;;30.40;1.00;;;;;;5073333;28;20522;-89
2023/04/29 10:45:39;;;;;;;3.87;2.87;;;30.80;1.00;;;;;;5056804;28;20459;-85
2023/04/29 10:48:10;;;;;;;5.20;3.80;;;30.70;1.00;;;;;;5068275;28;20515;-84
2023/04/29 10:50:48;;;;;;;5.50;3.37;;;30.30;1.00;;;;;;5074933;28;20712;-84
2023/04/29 10:53:22;;;;;;;3.67;3.27;;;30.70;1.00;;;;;;5077062;28;20411;-85
2023/04/29 10:55:53;;;;;;;3.30;3.00;;;31.00;1.00;;;;;;5074208;28;20489;-91
2023/04/29 10:58:40;;;;;;;5.17;3.60;;;31.20;1.00;;;;;;5080459;28;20518;-86
2023/04/29 11:01:09;;;;;;;3.50;3.20;;;31.10;1.00;;;;;;5077636;28;20939;-86
2023/04/29 11:04:03;;;;;;;4.30;3.10;;;31.00;1.00;;;;;;5055268;28;20954;-87
2023/04/29 11:06:35;;;;;;;4.13;3.10;;;31.20;1.00;;;;;;5055698;28;20439;-92
2023/04/29 11:09:03;;;;;;;4.53;2.80;;;30.70;1.00;;;;;;5055860;28;20439;-87
2023/04/29 11:12:08;;;;;;;3.10;2.67;;;30.20;1.00;;;;;;5056193;28;20454;-86
2023/04/29 11:14:48;;;;;;;6.53;4.00;;;29.70;1.00;;;;;;5088365;28;20494;-87
2023/04/29 11:17:16;;;;;;;6.07;3.40;;;29.30;1.00;;;;;;5073990;28;20415;-88
2023/04/29 11:19:48;;;;;;;4.30;3.20;;;28.80;1.00;;;;;;5056433;28;20466;-91
2023/04/29 11:22:16;;;;;;;5.27;4.37;;;28.60;1.00;;;;;;5059787;28;20443;-88
2023/04/29 11:24:56;;;;;;;7.30;3.60;;;28.90;1.00;;;;;;5068339;28;20493;-87
2023/04/29 11:27:27;;;;;;;6.27;4.67;;;28.40;1.00;;;;;;5077222;28;21070;-87
2023/04/29 11:29:57;;;;;;;4.27;3.80;;;28.00;1.00;;;;;;5094488;28;20414;-86
2023/04/29 11:32:26;;;;;;;6.87;4.37;;;27.20;1.00;;;;;;5093431;28;20950;-88
2023/04/29 11:34:52;;;;;;;4.83;4.33;;;27.00;1.00;;;;;;5092729;28;20993;-84
2023/04/29 11:37:28;;;;;;;4.63;3.93;;;27.30;1.00;;;;;;5092945;28;20410;-84
2023/04/29 11:40:00;;;;;;;3.53;3.20;;;27.90;1.00;;;;;;5074661;28;20642;-85
2023/04/29 11:42:26;;;;;;;4.23;3.60;;;28.40;1.00;;;;;;5075361;28;20442;-86
2023/04/29 11:44:53;;;;;;;4.50;4.10;;;28.80;1.00;;;;;;5093136;28;20501;-84
2023/04/29 11:47:20;;;;;;;3.93;3.53;;;28.50;1.00;;;;;;5093038;28;20399;-85
2023/04/29 11:49:46;;;;;;;4.13;3.50;;;28.80;1.00;;;;;;5092806;28;20460;-88
2023/04/29 11:52:11;;;;;;;4.87;3.93;;;29.30;1.00;;;;;;5075110;28;20418;-85
2023/04/29 11:54:37;;;;;;;6.03;3.50;;;;;;;;;;5073321;28;20473;-89
2023/04/29 11:57:04;;;;;;;4.70;4.23;;;;;;;;;;5090883;28;20252;-90
2023/04/29 11:59:31;;;;;;;4.90;4.13;;;;;;;;;;5090055;28;20180;-91
2023/04/29 12:01:59;;;;;;;5.87;3.87;;;;;;;;;;5091116;28;20458;-86
2023/04/29 12:04:25;;;;;;;4.40;4.00;;;;;;;;;;5090689;28;20453;-86
2023/04/29 12:06:52;;;;;;;6.60;4.57;;;;;;;;;;5074419;28;20415;-84
2023/04/29 12:09:18;;;;;;;5.10;3.53;;;;;;;;;;5056208;28;20419;-84
2023/04/29 12:11:45;;;;;;;5.50;4.87;;;;;;;;;;5072524;28;20928;-90
2023/04/29 12:14:11;;;;;;;4.80;4.30;;;;;;;;;;5072221;28;20468;-85
2023/04/29 12:16:37;;;;;;;5.80;4.87;;;;;;;;;;5072094;28;20430;-85
2023/04/29 12:19:03;;;;;;;5.30;4.03;;;;;;;;;;5071782;28;20412;-85
2023/04/29 12:21:30;;;;;;;6.83;3.97;;;;;;;;;;5080868;28;20259;-86
2023/04/29 12:23:59;;;;;;;5.60;3.97;;;;;;;;;;5057602;28;20422;-84
2023/04/29 12:26:27;;;;;;;4.80;4.10;;;28.40;1.00;;;;;;5092499;28;20413;-85
2023/04/29 12:28:59;;;;;;;5.80;4.30;;;28.00;1.00;;;;;;5092340;28;20461;-87
2023/04/29 12:31:33;;;;;;;4.43;3.77;;;27.50;1.00;;;;;;5074509;28;20418;-86
2023/04/29 12:33:59;;;;;;;5.80;4.17;;;26.80;1.00;;;;;;5096010;28;20409;-83
2023/04/29 12:36:24;;;;;;;3.43;2.80;;;26.20;1.00;;;;;;5094398;28;20688;-85
2023/04/29 12:38:53;;;;;;;4.80;3.20;;;26.30;1.00;;;;;;5076321;28;20195;-85
2023/04/29 12:41:20;;;;;;;3.77;2.90;;;;;;;;;;5076344;28;20169;-83
2023/04/29 12:43:45;;;;;;;5.60;3.60;;;;;;;;;;5076434;28;20414;-91
2023/04/29 12:46:11;;;;;;;3.10;2.57;;;;;;;;;;5080754;28;20874;-87
2023/04/29 12:48:39;;;;;;;3.43;2.23;;;;;;;;;;5076108;28;20176;-84
2023/04/29 12:51:08;;;;;;;3.83;2.70;;;;;;;;;;5093679;28;20472;-84
2023/04/29 12:53:34;;;;;;;3.40;3.10;;;;;;;;;;5096200;28;20406;-85